createdAt,value
2022-12-27T00:05:02.151Z,5.30
2022-12-27T00:10:05.758Z,5.30
2022-12-27T00:15:09.215Z,5.40
2022-12-27T00:20:13.594Z,5.20
2022-12-27T00:25:16.292Z,5.20
2022-12-27T00:30:18.987Z,5.30
2022-12-27T00:35:23.017Z,5.30
2022-12-27T00:40:25.739Z,5.40
2022-12-27T00:45:28.423Z,5.30
2022-12-27T00:50:32.628Z,5.40
2022-12-27T00:55:35.565Z,5.40
2022-12-27T01:00:38.702Z,5.50
2022-12-27T01:05:42.705Z,5.40
2022-12-27T01:10:45.359Z,5.40
2022-12-27T01:15:48.017Z,5.40
2022-12-27T01:20:52.061Z,5.50
2022-12-27T01:26:00.987Z,5.50
2022-12-27T01:31:06.575Z,5.50
2022-12-27T01:36:13.140Z,5.40
2022-12-27T01:41:35.788Z,5.40
2022-12-27T01:46:38.525Z,5.70
2022-12-27T01:51:42.532Z,5.70
2022-12-27T01:56:45.289Z,5.80
2022-12-27T02:01:49.314Z,5.80
2022-12-27T02:06:53.713Z,5.70
2022-12-27T02:12:01.744Z,5.70
2022-12-27T02:17:07.129Z,5.70
2022-12-27T02:22:54.185Z,5.70
2022-12-27T02:28:10.136Z,5.60
2022-12-27T02:33:22.092Z,5.50
2022-12-27T02:38:29.577Z,5.50
2022-12-27T02:43:50.726Z,5.40
2022-12-27T02:49:14.090Z,5.30
2022-12-27T02:54:40.640Z,5.40
2022-12-27T03:00:24.589Z,5.60
2022-12-27T03:05:37.742Z,5.70
2022-12-27T03:11:06.477Z,5.60
2022-12-27T03:16:21.968Z,5.60
2022-12-27T03:21:48.857Z,5.50
2022-12-27T03:26:52.935Z,5.30
2022-12-27T03:32:16.437Z,5.00
2022-12-27T03:37:44.508Z,4.90
2022-12-27T03:43:08.118Z,4.90
2022-12-27T03:48:14.919Z,5.00
2022-12-27T03:53:24.778Z,4.90
2022-12-27T03:58:27.551Z,4.80
2022-12-27T04:03:30.295Z,4.60
2022-12-27T04:08:52.197Z,4.50
2022-12-27T04:14:12.553Z,4.60
2022-12-27T04:19:32.964Z,4.60
2022-12-27T04:24:54.463Z,4.70
2022-12-27T04:30:14.896Z,4.60
2022-12-27T04:35:17.801Z,4.70
2022-12-27T04:40:39.700Z,4.50
2022-12-27T04:46:00.009Z,4.30
2022-12-27T04:51:20.373Z,4.10
2022-12-27T04:56:24.354Z,4.00
2022-12-27T05:01:44.862Z,3.90
2022-12-27T05:06:47.830Z,3.80
2022-12-27T05:12:14.906Z,3.70
2022-12-27T05:17:17.514Z,3.90
2022-12-27T05:22:37.863Z,4.10
2022-12-27T05:27:41.841Z,4.30
2022-12-27T05:32:44.500Z,4.50
2022-12-27T05:37:53.125Z,4.60
2022-12-27T05:43:01.013Z,4.60
2022-12-27T05:48:03.781Z,4.60
2022-12-27T05:53:06.560Z,4.80
2022-12-27T05:58:10.565Z,4.70
2022-12-27T06:03:13.292Z,4.80
2022-12-27T06:08:16.042Z,4.80
2022-12-27T06:13:20.026Z,4.80
2022-12-27T06:18:22.672Z,4.80
2022-12-27T06:23:25.310Z,4.90
2022-12-27T06:28:29.301Z,4.80
2022-12-27T06:33:32.421Z,4.90
2022-12-27T06:38:35.126Z,4.90
2022-12-27T06:43:39.652Z,4.60
2022-12-27T06:48:42.494Z,4.50
2022-12-27T06:53:45.176Z,4.20
2022-12-27T06:58:50.917Z,4.00
2022-12-27T07:03:55.770Z,3.90
2022-12-27T07:09:01.767Z,4.00
2022-12-27T07:14:05.885Z,4.20
2022-12-27T07:19:10.689Z,4.00
2022-12-27T07:24:13.540Z,4.10
2022-12-27T07:29:17.765Z,4.10
2022-12-27T07:34:21.948Z,4.10
2022-12-27T07:39:24.618Z,4.40
2022-12-27T07:44:28.696Z,5.00
2022-12-27T07:49:31.475Z,6.40
2022-12-27T07:54:34.138Z,6.30
2022-12-27T07:59:38.181Z,6.40
2022-12-27T08:04:40.947Z,9.20
2022-12-27T08:09:45.481Z,10.20
2022-12-27T08:14:49.522Z,9.60
2022-12-27T08:19:52.776Z,8.90
2022-12-27T08:24:56.180Z,8.00
2022-12-27T08:30:00.208Z,7.30
2022-12-27T08:35:25.027Z,8.20
2022-12-27T08:40:25.553Z,7.70
2022-12-27T08:45:29.536Z,7.00
2022-12-27T08:50:33.023Z,7.00
2022-12-27T08:55:35.794Z,6.70
2022-12-27T09:00:39.801Z,6.70
2022-12-27T09:05:42.508Z,6.50
2022-12-27T09:10:45.149Z,6.30
2022-12-27T09:15:49.188Z,6.20
2022-12-27T09:20:51.882Z,6.20
2022-12-27T09:25:54.532Z,6.30
2022-12-27T09:30:58.593Z,6.70
2022-12-27T09:36:06.066Z,7.70
2022-12-27T09:41:40.823Z,11.80
2022-12-27T09:46:48.409Z,18.10
2022-12-27T09:51:55.554Z,17.00
2022-12-27T09:57:19.432Z,17.40
2022-12-27T10:02:26.032Z,20.90
2022-12-27T10:07:37.100Z,19.20
2022-12-27T10:12:59.292Z,16.80
2022-12-27T10:18:15.248Z,15.20
2022-12-27T10:23:21.967Z,15.30
2022-12-27T10:28:28.237Z,19.60
2022-12-27T10:33:34.275Z,16.30
2022-12-27T10:38:37.255Z,12.60
2022-12-27T10:43:42.795Z,12.30
2022-12-27T10:54:24.239Z,18.40
2022-12-27T10:59:28.772Z,22.40
2022-12-27T11:04:34.567Z,20.90
2022-12-27T11:09:50.289Z,19.40
2022-12-27T11:14:59.443Z,19.90
2022-12-27T11:20:17.196Z,19.70
2022-12-27T11:25:20.587Z,20.60
2022-12-27T11:30:26.197Z,22.90
2022-12-27T11:35:30.464Z,23.40
2022-12-27T11:40:35.704Z,22.70
2022-12-27T11:45:41.371Z,24.00
2022-12-27T11:51:01.488Z,22.30
2022-12-27T11:56:20.257Z,22.90
2022-12-27T12:01:52.435Z,19.90
2022-12-27T12:07:04.488Z,14.10
2022-12-27T12:12:27.056Z,11.10
2022-12-27T12:17:54.708Z,10.50
2022-12-27T12:23:10.182Z,9.80
2022-12-27T12:28:58.271Z,9.60
2022-12-27T12:34:15.269Z,9.50
2022-12-27T12:39:28.942Z,9.20
2022-12-27T12:45:04.952Z,9.10
2022-12-27T12:50:28.766Z,9.00
2022-12-27T12:55:43.861Z,9.00
2022-12-27T13:01:08.997Z,8.90
2022-12-27T13:06:22.805Z,8.70
2022-12-27T13:11:41.635Z,8.60
2022-12-27T13:16:55.045Z,8.50
2022-12-27T13:22:07.340Z,8.60
2022-12-27T13:27:21.468Z,8.50
2022-12-27T13:32:31.817Z,8.30
2022-12-27T13:37:47.432Z,8.20
2022-12-27T13:43:41.319Z,8.00
2022-12-27T13:49:04.027Z,8.10
2022-12-27T13:54:49.987Z,8.10
2022-12-27T14:00:04.524Z,8.10
2022-12-27T14:05:32.987Z,7.90
2022-12-27T14:10:41.510Z,8.00
2022-12-27T14:16:11.786Z,7.90
2022-12-27T14:21:37.979Z,7.80
2022-12-27T14:27:10.130Z,7.70
2022-12-27T14:32:39.438Z,7.60
2022-12-27T14:38:14.398Z,7.60
2022-12-27T14:43:51.670Z,7.60
2022-12-27T14:49:24.755Z,7.60
2022-12-27T14:55:00.577Z,7.70
2022-12-27T15:00:15.132Z,7.70
2022-12-27T15:05:35.240Z,7.60
2022-12-27T15:10:58.660Z,7.60
2022-12-27T15:16:15.256Z,7.40
2022-12-27T15:21:45.319Z,7.20
2022-12-27T15:26:56.421Z,7.00
2022-12-27T15:32:09.753Z,6.70
2022-12-27T15:37:49.916Z,6.30
2022-12-27T15:43:02.710Z,6.10
2022-12-27T15:48:34.252Z,5.70
2022-12-27T15:53:55.385Z,5.40
2022-12-27T15:59:35.464Z,5.50
2022-12-27T16:04:49.205Z,5.20
2022-12-27T16:09:52.148Z,5.30
2022-12-27T16:15:39.343Z,5.00
2022-12-27T16:20:42.191Z,5.20
2022-12-27T16:25:45.119Z,4.90
2022-12-27T16:30:50.954Z,4.50
2022-12-27T16:36:14.333Z,4.30
2022-12-27T16:41:35.305Z,4.40
2022-12-27T16:46:52.599Z,4.40
2022-12-27T16:52:14.854Z,4.70
2022-12-27T16:57:40.111Z,4.80
2022-12-27T17:02:46.551Z,4.80
2022-12-27T17:08:14.305Z,4.60
2022-12-27T17:13:20.776Z,4.50
2022-12-27T17:18:30.100Z,4.30
2022-12-27T17:23:40.342Z,4.40
2022-12-27T17:28:54.103Z,4.10
2022-12-27T17:34:11.666Z,3.90
2022-12-27T17:39:25.634Z,3.60
2022-12-27T17:44:41.037Z,3.20
2022-12-27T17:49:45.441Z,3.10
2022-12-27T17:55:06.342Z,3.10
2022-12-27T18:00:23.220Z,3.00
2022-12-27T18:05:30.407Z,3.10
2022-12-27T18:10:36.504Z,3.40
2022-12-27T18:15:45.397Z,3.70
2022-12-27T18:20:55.313Z,3.70
2022-12-27T18:26:06.697Z,3.80
2022-12-27T18:31:16.902Z,4.00
2022-12-27T18:36:28.675Z,4.20
2022-12-27T18:41:36.926Z,4.20
2022-12-27T18:46:40.250Z,4.30
2022-12-27T18:51:44.314Z,4.10
2022-12-27T18:56:52.167Z,3.80
2022-12-27T19:01:55.873Z,3.80
2022-12-27T19:07:10.005Z,3.70
2022-12-27T19:12:24.595Z,3.60
2022-12-27T19:17:30.550Z,3.50
2022-12-27T19:22:43.262Z,3.40
2022-12-27T19:27:58.284Z,3.40
2022-12-27T19:33:02.127Z,3.30
2022-12-27T19:38:06.153Z,3.40
2022-12-27T19:43:08.820Z,3.80
2022-12-27T20:14:31.703Z,4.10
2022-12-27T20:19:38.036Z,4.40
2022-12-27T20:24:41.495Z,4.40
2022-12-27T20:29:46.858Z,4.40
2022-12-27T20:34:53.074Z,4.40
2022-12-27T20:39:57.072Z,4.20
2022-12-27T20:45:03.306Z,4.30
2022-12-27T20:50:11.901Z,4.30
2022-12-27T20:55:17.656Z,4.20
2022-12-27T21:00:23.252Z,4.20
2022-12-27T21:05:31.045Z,4.20
2022-12-27T21:10:34.353Z,4.20
2022-12-27T21:15:42.662Z,4.20
2022-12-27T21:20:48.253Z,4.20
2022-12-27T21:25:51.877Z,3.80
2022-12-27T21:30:57.092Z,3.70
2022-12-27T21:36:04.657Z,3.80
2022-12-27T21:41:11.199Z,3.90
2022-12-27T21:46:16.331Z,3.80
2022-12-27T21:51:20.806Z,3.60
2022-12-27T21:56:24.675Z,3.80
2022-12-27T22:01:29.599Z,3.70
2022-12-27T22:06:35.406Z,3.50
2022-12-27T22:11:39.417Z,3.10
2022-12-27T22:16:42.194Z,3.00
2022-12-27T22:21:46.156Z,3.00
2022-12-27T22:32:06.512Z,3.20
2022-12-27T22:37:10.527Z,3.60
2022-12-27T22:42:13.175Z,3.80
2022-12-27T22:47:26.155Z,3.80
2022-12-27T22:52:31.492Z,3.40
2022-12-27T22:57:34.248Z,3.00
2022-12-27T23:02:37.087Z,2.70
2022-12-27T23:08:04.817Z,2.60
2022-12-27T23:13:03.719Z,2.50
2022-12-27T23:18:06.476Z,2.70
2022-12-27T23:23:10.452Z,2.90
2022-12-27T23:28:13.152Z,3.30
2022-12-27T23:33:15.905Z,3.40
2022-12-27T23:38:19.864Z,3.10
2022-12-27T23:43:50.951Z,3.20
2022-12-27T23:48:45.626Z,3.20
2022-12-27T23:53:49.735Z,3.40
2022-12-27T23:58:54.523Z,3.20
